createdAt,value
2023-04-15T00:01:52.577Z,4.38
2023-04-15T00:04:20.795Z,5.13
2023-04-15T00:06:54.579Z,4.70
2023-04-15T00:09:21.523Z,5.07
2023-04-15T00:11:48.438Z,4.53
2023-04-15T00:14:15.565Z,4.97
2023-04-15T00:16:42.602Z,5.45
2023-04-15T00:19:09.501Z,5.50
2023-04-15T00:21:36.976Z,5.40
2023-04-15T00:24:03.853Z,4.80
2023-04-15T00:26:30.614Z,5.30
2023-04-15T00:28:58.155Z,5.03
2023-04-15T00:31:25.383Z,5.35
2023-04-15T00:33:52.624Z,5.22
2023-04-15T00:36:19.431Z,5.50
2023-04-15T00:38:46.771Z,5.80
2023-04-15T00:41:13.541Z,5.10
2023-04-15T00:43:40.851Z,5.30
2023-04-15T00:46:09.490Z,5.47
2023-04-15T00:48:37.330Z,4.88
2023-04-15T00:51:04.466Z,5.43
2023-04-15T00:53:31.498Z,5.93
2023-04-15T00:55:58.464Z,5.63
2023-04-15T00:58:26.352Z,5.53
2023-04-15T01:00:54.539Z,5.68
2023-04-15T01:03:21.752Z,6.03
2023-04-15T01:05:49.871Z,5.85
2023-04-15T01:08:17.366Z,6.10
2023-04-15T01:10:44.157Z,5.80
2023-04-15T01:13:10.899Z,6.15
2023-04-15T01:15:38.659Z,5.82
2023-04-15T01:18:06.104Z,6.47
2023-04-15T01:20:34.456Z,6.45
2023-04-15T01:23:01.486Z,5.82
2023-04-15T01:25:33.297Z,7.38
2023-04-15T01:28:00.715Z,6.28
2023-04-15T01:30:27.650Z,6.32
2023-04-15T01:32:54.813Z,6.57
2023-04-15T01:35:22.508Z,5.47
2023-04-15T01:37:51.996Z,6.70
2023-04-15T01:40:18.781Z,6.25
2023-04-15T01:42:45.875Z,6.13
2023-04-15T01:45:13.933Z,6.30
2023-04-15T01:47:40.713Z,6.07
2023-04-15T01:50:10.562Z,6.38
2023-04-15T01:52:37.531Z,6.40
2023-04-15T01:55:04.952Z,5.88
2023-04-15T01:57:32.196Z,6.03
2023-04-15T01:59:59.031Z,6.35
2023-04-15T02:02:25.831Z,7.30
2023-04-15T02:04:55.809Z,6.88
2023-04-15T02:07:22.661Z,7.43
2023-04-15T02:09:49.375Z,8.45
2023-04-15T02:12:16.124Z,7.28
2023-04-15T02:14:42.865Z,7.40
2023-04-15T02:17:09.611Z,7.80
2023-04-15T02:19:36.712Z,8.00
2023-04-15T02:22:04.074Z,8.27
2023-04-15T02:24:31.290Z,8.23
2023-04-15T02:26:58.530Z,7.75
2023-04-15T02:29:25.650Z,8.93
2023-04-15T02:31:52.479Z,8.77
2023-04-15T02:34:21.040Z,8.23
2023-04-15T02:36:51.688Z,8.00
2023-04-15T02:39:19.092Z,8.65
2023-04-15T02:41:51.746Z,9.02
2023-04-15T02:46:54.724Z,8.63
2023-04-15T02:49:21.942Z,7.82
2023-04-15T02:51:49.738Z,8.15
2023-04-15T02:54:18.092Z,7.55
2023-04-15T02:56:45.049Z,8.50
2023-04-15T02:59:12.956Z,7.45
2023-04-15T03:01:39.712Z,8.25
2023-04-15T03:04:08.952Z,8.80
2023-04-15T03:06:36.293Z,9.98
2023-04-15T03:09:03.746Z,10.18
2023-04-15T03:11:37.037Z,8.63
2023-04-15T03:14:06.136Z,9.15
2023-04-15T03:16:35.992Z,9.68
2023-04-15T03:19:04.456Z,10.00
2023-04-15T03:21:38.266Z,11.38
2023-04-15T03:24:06.092Z,9.80
2023-04-15T03:26:33.286Z,9.60
2023-04-15T03:29:04.029Z,9.50
2023-04-15T03:31:31.506Z,9.32
2023-04-15T03:34:00.524Z,8.52
2023-04-15T03:36:31.975Z,9.18
2023-04-15T03:38:59.591Z,9.57
2023-04-15T03:41:26.897Z,8.93
2023-04-15T03:43:56.365Z,8.90
2023-04-15T03:46:23.240Z,9.30
2023-04-15T03:48:50.269Z,9.80
2023-04-15T03:51:17.524Z,8.55
2023-04-15T03:53:44.198Z,9.02
2023-04-15T03:56:11.417Z,9.80
2023-04-15T03:58:38.325Z,10.63
2023-04-15T04:01:05.239Z,10.32
2023-04-15T04:03:32.204Z,10.68
2023-04-15T04:05:59.558Z,9.77
2023-04-15T04:08:27.431Z,10.50
2023-04-15T04:10:54.285Z,11.77
2023-04-15T04:13:21.017Z,11.68
2023-04-15T04:15:48.019Z,10.80
2023-04-15T04:18:14.918Z,12.98
2023-04-15T04:20:41.932Z,12.05
2023-04-15T04:23:08.724Z,11.70
2023-04-15T04:25:35.698Z,10.75
2023-04-15T04:28:02.517Z,10.82
2023-04-15T04:30:30.855Z,12.20
2023-04-15T04:33:01.713Z,11.57
2023-04-15T04:35:28.430Z,11.50
2023-04-15T04:37:55.365Z,10.70
2023-04-15T04:40:22.325Z,11.52
2023-04-15T04:42:53.806Z,11.25
2023-04-15T04:45:20.800Z,11.80
2023-04-15T04:47:48.850Z,12.05
2023-04-15T04:50:15.932Z,13.20
2023-04-15T04:52:42.639Z,13.93
2023-04-15T04:55:09.557Z,12.82
2023-04-15T04:57:36.419Z,12.02
2023-04-15T05:00:05.101Z,11.90
2023-04-15T05:02:33.564Z,11.68
2023-04-15T05:05:00.570Z,12.05
2023-04-15T05:07:27.593Z,12.38
2023-04-15T05:09:54.348Z,12.98
2023-04-15T05:12:21.157Z,11.90
2023-04-15T05:14:48.142Z,11.98
2023-04-15T05:17:15.547Z,13.07
2023-04-15T05:19:42.298Z,12.07
2023-04-15T05:22:09.047Z,13.13
2023-04-15T05:24:36.101Z,12.10
2023-04-15T05:27:03.083Z,12.93
2023-04-15T05:29:30.398Z,11.57
2023-04-15T05:31:57.183Z,11.35
2023-04-15T05:34:24.009Z,11.50
2023-04-15T05:36:50.751Z,12.00
2023-04-15T05:39:17.625Z,11.35
2023-04-15T05:41:44.950Z,11.68
2023-04-15T05:44:12.321Z,12.23
2023-04-15T05:46:39.213Z,12.82
2023-04-15T05:49:06.266Z,12.38
2023-04-15T05:51:33.055Z,11.80
2023-04-15T05:53:59.956Z,12.45
2023-04-15T05:56:27.141Z,12.80
2023-04-15T05:58:54.008Z,12.70
2023-04-15T06:01:21.194Z,12.15
2023-04-15T06:03:49.083Z,13.65
2023-04-15T06:06:16.370Z,13.40
2023-04-15T06:08:43.282Z,12.63
2023-04-15T06:11:10.395Z,13.00
2023-04-15T06:13:37.363Z,12.20
2023-04-15T06:16:04.833Z,13.43
2023-04-15T06:18:31.629Z,12.20
2023-04-15T06:20:58.940Z,14.10
2023-04-15T06:23:28.980Z,12.60
2023-04-15T06:25:55.996Z,12.82
2023-04-15T06:28:22.946Z,12.70
2023-04-15T06:30:49.811Z,13.80
2023-04-15T06:33:18.765Z,12.55
2023-04-15T06:35:45.992Z,12.75
2023-04-15T06:38:12.778Z,12.73
2023-04-15T06:40:39.445Z,13.32
2023-04-15T06:43:06.761Z,14.77
2023-04-15T06:45:33.733Z,13.30
2023-04-15T06:48:00.739Z,14.15
2023-04-15T06:50:27.762Z,13.38
2023-04-15T06:52:56.075Z,14.27
2023-04-15T06:55:23.071Z,13.07
2023-04-15T06:57:49.854Z,13.95
2023-04-15T07:00:17.830Z,15.10
2023-04-15T07:02:45.170Z,14.00
2023-04-15T07:05:12.870Z,16.25
2023-04-15T07:07:39.766Z,13.05
2023-04-15T07:10:07.963Z,13.48
2023-04-15T07:12:35.877Z,13.57
2023-04-15T07:15:02.943Z,12.50
2023-04-15T07:17:29.748Z,12.10
2023-04-15T07:19:56.641Z,14.82
2023-04-15T07:22:23.394Z,13.57
2023-04-15T07:24:50.560Z,12.90
2023-04-15T07:27:17.915Z,11.00
2023-04-15T07:29:44.832Z,10.50
2023-04-15T07:32:11.993Z,11.10
2023-04-15T07:34:39.992Z,10.85
2023-04-15T07:37:06.765Z,9.32
2023-04-15T07:39:33.597Z,10.20
2023-04-15T07:42:00.479Z,10.15
2023-04-15T07:44:28.191Z,9.48
2023-04-15T07:46:56.245Z,9.98
2023-04-15T07:49:23.419Z,8.90
2023-04-15T07:51:51.082Z,8.75
2023-04-15T07:54:17.788Z,7.93
2023-04-15T07:56:44.572Z,8.02
2023-04-15T07:59:11.722Z,7.72
2023-04-15T08:01:41.074Z,7.35
2023-04-15T08:04:08.322Z,7.72
2023-04-15T08:06:35.596Z,7.55
2023-04-15T08:09:02.783Z,6.63
2023-04-15T08:11:29.796Z,6.20
2023-04-15T08:13:56.546Z,5.88
2023-04-15T08:16:25.383Z,7.25
2023-04-15T08:18:53.960Z,6.75
2023-04-15T08:21:21.396Z,6.00
2023-04-15T08:23:52.018Z,5.93
2023-04-15T08:26:20.022Z,5.38
2023-04-15T08:28:47.034Z,6.05
2023-04-15T08:31:16.180Z,5.82
2023-04-15T08:33:43.118Z,6.00
2023-04-15T08:36:09.949Z,6.35
2023-04-15T08:38:37.477Z,5.22
2023-04-15T08:41:20.134Z,5.50
2023-04-15T08:43:57.302Z,6.30
2023-04-15T08:46:24.282Z,5.63
2023-04-15T08:48:54.655Z,6.25
2023-04-15T08:51:22.742Z,5.68
2023-04-15T08:53:52.476Z,6.05
2023-04-15T08:56:21.277Z,6.05
2023-04-15T08:58:48.563Z,5.25
2023-04-15T09:01:15.950Z,5.53
2023-04-15T09:03:44.002Z,5.65
2023-04-15T09:06:11.761Z,5.13
2023-04-15T09:08:38.937Z,5.60
2023-04-15T09:11:05.885Z,4.68
2023-04-15T09:13:32.890Z,4.43
2023-04-15T09:16:04.745Z,4.47
2023-04-15T09:18:36.708Z,4.00
2023-04-15T09:21:11.225Z,4.30
2023-04-15T09:23:39.935Z,3.63
2023-04-15T09:26:07.348Z,6.10
2023-04-15T09:28:43.154Z,4.20
2023-04-15T09:31:10.839Z,3.90
2023-04-15T09:33:56.420Z,4.65
2023-04-15T09:36:25.414Z,4.55
2023-04-15T09:38:59.791Z,4.80
2023-04-15T09:41:28.715Z,4.43
2023-04-15T09:43:55.712Z,3.50
2023-04-15T09:46:44.869Z,3.80
2023-04-15T09:49:13.016Z,3.83
2023-04-15T09:51:39.932Z,4.03
2023-04-15T09:54:07.352Z,4.22
2023-04-15T09:56:41.864Z,3.50
2023-04-15T09:59:09.586Z,3.53
2023-04-15T10:01:43.068Z,3.25
2023-04-15T10:04:12.618Z,3.58
2023-04-15T10:06:48.702Z,3.53
2023-04-15T10:09:15.959Z,3.70
2023-04-15T10:11:43.420Z,4.13
2023-04-15T10:14:11.460Z,3.50
2023-04-15T10:16:42.742Z,3.08
2023-04-15T10:19:10.763Z,4.10
2023-04-15T10:21:38.028Z,3.15
2023-04-15T10:24:06.092Z,3.03
2023-04-15T10:26:33.168Z,3.17
2023-04-15T10:29:01.243Z,3.28
2023-04-15T10:31:30.183Z,3.00
2023-04-15T10:33:57.995Z,3.05
2023-04-15T10:36:25.540Z,4.07
2023-04-15T10:38:52.674Z,3.35
2023-04-15T10:41:23.632Z,2.97
2023-04-15T10:43:58.064Z,2.85
2023-04-15T10:46:41.626Z,2.78
2023-04-15T10:49:26.978Z,2.92
2023-04-15T10:51:58.518Z,3.13
2023-04-15T10:54:25.383Z,3.10
2023-04-15T10:57:06.056Z,3.08
2023-04-15T10:59:36.065Z,2.60
2023-04-15T11:02:07.354Z,2.97
2023-04-15T11:04:55.812Z,3.33
2023-04-15T11:07:44.965Z,2.63
2023-04-15T11:10:14.450Z,2.85
2023-04-15T11:12:42.171Z,2.55
2023-04-15T11:15:40.277Z,2.85
2023-04-15T11:18:13.717Z,2.47
2023-04-15T11:20:42.746Z,2.90
2023-04-15T11:23:15.349Z,2.92
2023-04-15T11:25:45.788Z,3.05
2023-04-15T11:28:13.535Z,2.58
2023-04-15T11:30:42.094Z,2.88
2023-04-15T11:33:12.018Z,2.70
2023-04-15T11:35:40.941Z,3.78
2023-04-15T11:38:13.093Z,2.90
2023-04-15T11:40:40.855Z,3.50
2023-04-15T11:43:09.305Z,3.38
2023-04-15T11:45:49.281Z,3.33
2023-04-15T11:48:18.363Z,3.08
2023-04-15T11:50:45.435Z,3.38
2023-04-15T11:53:13.867Z,3.13
2023-04-15T11:55:47.685Z,2.80
2023-04-15T11:58:21.859Z,2.80
2023-04-15T12:00:58.827Z,2.35
2023-04-15T12:03:26.041Z,3.13
2023-04-15T12:06:24.580Z,2.25
2023-04-15T12:09:30.930Z,2.70
2023-04-15T12:12:00.027Z,2.13
2023-04-15T12:14:30.711Z,2.65
2023-04-15T12:17:03.126Z,2.38
2023-04-15T12:19:38.424Z,2.70
2023-04-15T12:22:09.976Z,2.30
2023-04-15T12:24:43.926Z,2.30
2023-04-15T12:27:15.143Z,2.35
2023-04-15T12:29:43.282Z,2.40
2023-04-15T12:32:15.550Z,2.35
2023-04-15T12:34:50.959Z,2.70
2023-04-15T12:37:17.890Z,2.33
2023-04-15T12:39:47.947Z,2.70
2023-04-15T12:42:16.395Z,2.70
2023-04-15T12:44:43.807Z,2.25
2023-04-15T12:47:11.795Z,2.20
2023-04-15T12:49:39.464Z,2.03
2023-04-15T12:52:06.972Z,2.60
2023-04-15T12:54:34.854Z,2.63
2023-04-15T12:57:06.034Z,2.33
2023-04-15T12:59:34.139Z,2.22
2023-04-15T13:02:02.711Z,2.15
2023-04-15T13:04:31.502Z,2.80
2023-04-15T13:06:59.197Z,2.85
2023-04-15T13:09:26.424Z,2.42
2023-04-15T13:11:54.706Z,3.05
2023-04-15T13:14:21.824Z,2.60
2023-04-15T13:16:50.753Z,2.90
2023-04-15T13:19:17.867Z,2.85
2023-04-15T13:21:47.389Z,3.00
2023-04-15T13:24:14.429Z,2.60
2023-04-15T13:26:41.884Z,2.50
2023-04-15T13:29:08.811Z,2.40
2023-04-15T13:31:35.908Z,2.50
2023-04-15T13:36:29.546Z,2.55
2023-04-15T13:39:00.196Z,2.55
2023-04-15T13:41:27.316Z,2.80
2023-04-15T13:43:58.366Z,2.67
2023-04-15T13:46:26.143Z,2.63
2023-04-15T13:48:53.645Z,3.35
2023-04-15T13:51:20.489Z,2.75
2023-04-15T13:53:47.378Z,2.53
2023-04-15T13:56:19.418Z,2.72
2023-04-15T13:58:46.240Z,2.10
2023-04-15T14:01:13.329Z,2.70
2023-04-15T14:03:40.659Z,2.50
2023-04-15T14:06:07.650Z,2.33
2023-04-15T14:08:34.533Z,2.58
2023-04-15T14:11:01.464Z,2.88
2023-04-15T14:13:28.304Z,2.50
2023-04-15T14:15:55.409Z,2.58
2023-04-15T14:18:22.872Z,2.38
2023-04-15T14:20:50.826Z,2.00
2023-04-15T14:23:17.565Z,2.40
2023-04-15T14:25:46.694Z,2.80
2023-04-15T14:28:15.355Z,2.65
2023-04-15T14:30:42.125Z,2.53
2023-04-15T14:33:09.012Z,2.10
2023-04-15T14:35:36.228Z,2.42
2023-04-15T14:38:03.034Z,3.53
2023-04-15T14:40:33.710Z,3.15
2023-04-15T14:43:09.671Z,2.75
2023-04-15T14:45:42.206Z,2.85
2023-04-15T14:48:12.866Z,3.08
2023-04-15T14:50:40.359Z,3.10
2023-04-15T14:53:07.092Z,3.28
2023-04-15T14:55:33.840Z,3.50
2023-04-15T14:58:02.190Z,3.97
2023-04-15T15:00:28.888Z,3.92
2023-04-15T15:02:55.856Z,4.00
2023-04-15T15:05:23.354Z,3.95
2023-04-15T15:07:50.203Z,4.70
2023-04-15T15:10:17.157Z,18.67
2023-04-15T15:13:06.236Z,5.97
2023-04-15T15:15:34.353Z,5.72
2023-04-15T15:18:01.891Z,10.45
2023-04-15T15:20:29.324Z,4.50
2023-04-15T15:22:56.411Z,4.20
2023-04-15T15:25:23.174Z,12.18
2023-04-15T15:27:50.048Z,4.72
2023-04-15T15:30:19.226Z,4.20
2023-04-15T15:32:47.105Z,4.45
2023-04-15T15:35:13.879Z,4.90
2023-04-15T15:37:45.040Z,6.22
2023-04-15T15:40:14.608Z,5.28
2023-04-15T15:42:41.823Z,5.78
2023-04-15T15:45:08.750Z,5.63
2023-04-15T15:47:38.339Z,6.03
2023-04-15T15:50:06.393Z,4.95
2023-04-15T15:52:33.521Z,4.88
2023-04-15T15:55:00.878Z,5.82
2023-04-15T15:57:27.738Z,5.32
2023-04-15T16:00:04.817Z,5.70
2023-04-15T16:03:04.514Z,5.22
2023-04-15T16:05:24.540Z,6.72
2023-04-15T16:07:51.282Z,6.68
2023-04-15T16:10:18.334Z,5.88
2023-04-15T16:12:45.110Z,6.28
2023-04-15T16:15:12.679Z,6.65
2023-04-15T16:17:39.559Z,6.90
2023-04-15T16:20:07.002Z,6.40
2023-04-15T16:22:34.956Z,5.95
2023-04-15T16:25:01.825Z,5.95
2023-04-15T16:27:28.735Z,6.50
2023-04-15T16:29:55.704Z,6.68
2023-04-15T16:32:22.690Z,5.68
2023-04-15T16:34:49.802Z,5.63
2023-04-15T16:37:16.922Z,5.75
2023-04-15T16:39:43.824Z,6.03
2023-04-15T16:42:10.739Z,6.97
2023-04-15T16:44:37.798Z,6.15
2023-04-15T16:47:04.645Z,6.22
2023-04-15T16:49:31.337Z,6.32
2023-04-15T16:51:58.258Z,6.90
2023-04-15T16:54:25.043Z,7.57
2023-04-15T16:56:52.032Z,6.47
2023-04-15T16:59:18.998Z,7.30
2023-04-15T17:01:45.936Z,7.22
2023-04-15T17:04:12.860Z,8.90
2023-04-15T17:06:39.679Z,7.50
2023-04-15T17:09:06.487Z,8.45
2023-04-15T17:11:35.032Z,7.72
2023-04-15T17:14:03.089Z,7.38
2023-04-15T17:16:29.928Z,7.88
2023-04-15T17:18:59.216Z,8.82
2023-04-15T17:21:30.443Z,7.90
2023-04-15T17:23:57.320Z,7.88
2023-04-15T17:26:24.080Z,14.38
2023-04-15T17:28:50.880Z,7.97
2023-04-15T17:31:17.604Z,8.65
2023-04-15T17:33:55.278Z,8.35
2023-04-15T17:36:29.115Z,9.30
2023-04-15T17:38:56.455Z,10.18
2023-04-15T17:41:24.926Z,9.68
2023-04-15T17:43:51.669Z,10.48
2023-04-15T17:46:19.370Z,10.70
2023-04-15T17:48:47.639Z,10.38
2023-04-15T17:51:15.083Z,10.38
2023-04-15T17:53:42.095Z,10.02
2023-04-15T17:56:08.889Z,10.23
2023-04-15T17:58:35.906Z,8.98
2023-04-15T18:01:03.654Z,13.45
2023-04-15T18:03:30.819Z,10.98
2023-04-15T18:05:57.666Z,10.35
2023-04-15T18:08:24.420Z,11.02
2023-04-15T18:10:51.059Z,11.05
2023-04-15T18:13:17.813Z,11.57
2023-04-15T18:15:46.874Z,12.00
2023-04-15T18:18:14.266Z,11.00
2023-04-15T18:20:40.996Z,11.98
2023-04-15T18:23:08.055Z,10.45
2023-04-15T18:25:35.145Z,11.38
2023-04-15T18:28:02.185Z,12.23
2023-04-15T18:30:29.088Z,11.27
2023-04-15T18:32:56.376Z,11.77
2023-04-15T18:35:24.334Z,11.32
2023-04-15T18:37:52.702Z,11.48
2023-04-15T18:40:19.741Z,12.05
2023-04-15T18:42:46.464Z,12.13
2023-04-15T18:45:13.254Z,11.60
2023-04-15T18:47:40.380Z,12.48
2023-04-15T18:50:08.020Z,11.77
2023-04-15T18:52:34.961Z,12.43
2023-04-15T18:55:03.298Z,13.52
2023-04-15T18:57:34.795Z,12.52
2023-04-15T19:00:02.729Z,13.18
2023-04-15T19:02:29.546Z,13.98
2023-04-15T19:04:56.559Z,13.40
2023-04-15T19:07:23.406Z,17.25
2023-04-15T19:09:50.103Z,13.38
2023-04-15T19:12:17.082Z,13.38
2023-04-15T19:14:43.890Z,13.07
2023-04-15T19:17:11.233Z,13.38
2023-04-15T19:19:38.665Z,14.10
2023-04-15T19:22:05.753Z,13.55
2023-04-15T19:24:33.405Z,15.05
2023-04-15T19:27:01.628Z,15.23
2023-04-15T19:29:28.823Z,14.00
2023-04-15T19:31:56.249Z,14.70
2023-04-15T19:34:23.040Z,14.07
2023-04-15T19:36:49.825Z,15.35
2023-04-15T19:39:16.883Z,14.98
2023-04-15T19:41:44.267Z,15.45
2023-04-15T19:44:14.333Z,14.80
2023-04-15T19:46:44.066Z,13.90
2023-04-15T19:49:11.401Z,15.20
2023-04-15T19:51:38.116Z,16.83
2023-04-15T19:54:04.862Z,14.52
2023-04-15T19:56:34.134Z,14.20
2023-04-15T19:59:02.270Z,17.15
2023-04-15T20:01:29.181Z,16.15
2023-04-15T20:03:56.254Z,14.90
2023-04-15T20:06:23.285Z,16.70
2023-04-15T20:08:50.002Z,14.70
2023-04-15T20:11:16.907Z,15.98
2023-04-15T20:13:43.683Z,16.55
2023-04-15T20:16:11.659Z,16.65
2023-04-15T20:18:38.420Z,17.25
2023-04-15T20:21:05.514Z,17.25
2023-04-15T20:23:32.456Z,17.67
2023-04-15T20:25:59.237Z,18.08
2023-04-15T20:28:27.476Z,18.45
2023-04-15T20:30:54.297Z,17.60
2023-04-15T20:33:22.203Z,19.00
2023-04-15T20:35:48.957Z,16.90
2023-04-15T20:38:16.423Z,19.33
2023-04-15T20:40:43.535Z,18.50
2023-04-15T20:43:12.990Z,19.08
2023-04-15T20:45:39.922Z,18.63
2023-04-15T20:48:07.000Z,19.27
2023-04-15T20:50:33.986Z,19.77
2023-04-15T20:53:00.860Z,18.67
2023-04-15T20:55:28.998Z,18.05
2023-04-15T20:57:59.266Z,21.40
2023-04-15T21:00:26.096Z,19.60
2023-04-15T21:02:55.221Z,18.20
2023-04-15T21:05:22.248Z,20.23
2023-04-15T21:07:49.248Z,20.23
2023-04-15T21:10:16.245Z,19.85
2023-04-15T21:12:43.643Z,22.48
2023-04-15T21:15:10.883Z,21.15
2023-04-15T21:17:37.885Z,21.10
2023-04-15T21:20:05.299Z,20.52
2023-04-15T21:22:32.573Z,22.58
2023-04-15T21:24:59.359Z,21.90
2023-04-15T21:27:26.301Z,21.30
2023-04-15T21:29:53.145Z,22.67
2023-04-15T21:32:19.977Z,21.85
2023-04-15T21:34:47.196Z,26.58
2023-04-15T21:37:13.946Z,23.15
2023-04-15T21:39:40.624Z,24.27
2023-04-15T21:42:07.373Z,22.00
2023-04-15T21:44:34.186Z,23.10
2023-04-15T21:47:01.225Z,23.55
2023-04-15T21:49:28.272Z,24.73
2023-04-15T21:51:55.032Z,25.55
2023-04-15T21:54:21.837Z,23.95
2023-04-15T21:56:49.959Z,24.25
2023-04-15T21:59:16.684Z,25.65
2023-04-15T22:01:43.566Z,24.50
2023-04-15T22:04:11.191Z,25.85
2023-04-15T22:06:38.620Z,26.13
2023-04-15T22:09:05.746Z,28.38
2023-04-15T22:11:32.523Z,25.42
2023-04-15T22:13:59.710Z,26.42
2023-04-15T22:16:27.268Z,27.80
2023-04-15T22:18:54.797Z,26.13
2023-04-15T22:21:21.656Z,27.73
2023-04-15T22:23:48.938Z,27.02
2023-04-15T22:26:15.854Z,27.52
2023-04-15T22:28:42.566Z,27.15
2023-04-15T22:31:09.686Z,27.23
2023-04-15T22:33:36.881Z,28.35
2023-04-15T22:36:03.794Z,27.90
2023-04-15T22:38:30.917Z,28.13
2023-04-15T22:40:58.637Z,29.30
2023-04-15T22:43:28.198Z,28.08
2023-04-15T22:45:57.760Z,27.60
2023-04-15T22:48:25.822Z,28.35
2023-04-15T22:50:53.968Z,27.25
2023-04-15T22:53:23.395Z,27.15
2023-04-15T22:55:50.148Z,29.95
2023-04-15T22:58:18.308Z,28.90
2023-04-15T23:00:45.474Z,27.92
2023-04-15T23:03:12.422Z,29.25
2023-04-15T23:05:41.061Z,29.30
2023-04-15T23:08:08.405Z,30.15
2023-04-15T23:10:35.777Z,29.92
2023-04-15T23:13:02.708Z,29.80
2023-04-15T23:15:29.444Z,31.58
2023-04-15T23:17:56.465Z,29.52
2023-04-15T23:20:23.241Z,29.48
2023-04-15T23:22:49.922Z,31.30
2023-04-15T23:25:16.877Z,31.05
2023-04-15T23:27:43.625Z,31.55
2023-04-15T23:30:10.585Z,32.60
2023-04-15T23:32:37.520Z,31.75
2023-04-15T23:35:04.838Z,33.17
2023-04-15T23:37:31.885Z,32.10
2023-04-15T23:39:58.872Z,31.30
2023-04-15T23:42:26.088Z,32.88
2023-04-15T23:44:53.041Z,32.78
2023-04-15T23:47:20.164Z,32.28
2023-04-15T23:49:47.059Z,32.53
2023-04-15T23:52:13.805Z,32.83
2023-04-15T23:54:40.596Z,32.10
2023-04-15T23:57:07.659Z,34.60
2023-04-15T23:59:34.581Z,35.63
